Foehn-Box 4     en développement                      
EPHEMERIDE     (heures GMT)
Lever Zenith Coucher
6:3:30 11:16:23 16:28:37

Validation GPS le : 21-10-25 7:39  (GMT)

BATTERIE : 4.34      SOLAIRE : 0.22

SIGNAL : 11.99 ALTITUDE : 2095

FOEHN-BOX 4           Date :  25/10/2021   
Heure Vent
instant
Vent
moyen
Vent
mini
Vent
maxi
Direction
vent
Tempe
-rature
Pression
Humidite
19:10:19 0 0 0 0 -127.0 795.2 29.1
19:05:19 0 0 0 0 -127.0 795.2 28.9
19:00:19 0 0 0 0 -127.0 795.1 29.8
18:55:19 0 0 0 0 -127.0 795.0 29.8
18:50:18 0 0 0 0 -127.0 795.2 29.9
18:45:19 0 0 0 0 -127.0 795.2 29.8
18:40:18 0 0 0 0 -127.0 795.0 29.3
18:35:22 0 0 0 0 -127.0 795.0 29.2
18:30:19 0 0 0 0 -127.0 794.8 29.1
18:25:19 0 0 0 0 -127.0 795.0 29.8
18:20:19 0 0 0 0 -127.0 794.9 29.5
18:15:19 0 0 0 0 -127.0 794.9 30.1
18:10:19 0 0 0 0 -127.0 794.8 29.2
18:05:19 0 0 0 0 -127.0 794.8 28.9
18:00:19 0 0 0 0 -127.0 794.9 30.1
17:55:19 0 0 0 0 -127.0 794.8 29.6
17:50:19 0 0 0 0 -127.0 794.8 29.6
17:45:19 0 0 0 0 -127.0 794.8 29.6
17:40:19 0 0 0 0 -127.0 794.8 29.0
17:35:19 0 0 0 0 -127.0 794.9 29.3
17:30:18 0 0 0 0 -127.0 794.7 28.7
17:25:20 0 0 0 0 -127.0 794.8 29.1
17:20:19 0 0 0 0 -127.0 794.8 28.8